Terminal Aerodrome Forecast
Issued by NWS Melbourne, FL

Home | Current Version | Previous Version | Text Only | Print | Product List | Glossary On
Versions: 1 2 3 4 5 6 7 8 9 10 11 12 13 14
374
FTUS42 KMLB 250015 AAA
TAFDAB
TAF AMD
KDAB 250015Z 2500/2524 VRB06KT P6SM VCTS SCT040CB BKN060
      TEMPO 2500/2502 32010G20KT P6SM
     FM250300 18003KT P6SM FEW040 SCT080 SCT250
     FM251300 20006KT P6SM SCT035 SCT250
     FM251800 13008KT P6SM VCTS SCT040CB BKN250=

USA.gov is the U.S. government's official web portal to all federal, state and local government web resources and services.